createdAt,value
2018-11-11T00:00:43.398Z,100587.70
2018-11-11T00:03:11.156Z,100589.44
2018-11-11T00:05:39.107Z,100591.19
2018-11-11T00:08:06.674Z,100593.34
2018-11-11T00:10:34.366Z,100594.17
2018-11-11T00:13:02.254Z,100589.81
2018-11-11T00:15:30.194Z,100586.31
2018-11-11T00:17:58.011Z,100582.39
2018-11-11T00:20:25.808Z,100579.86
2018-11-11T00:22:53.527Z,100581.25
2018-11-11T00:25:21.014Z,100584.29
2018-11-11T00:27:48.858Z,100582.63
2018-11-11T00:30:17.536Z,100573.48
2018-11-11T00:32:45.068Z,100576.16
2018-11-11T00:35:12.805Z,100580.08
2018-11-11T00:37:40.800Z,100571.81
2018-11-11T00:40:09.682Z,100572.70
2018-11-11T00:42:37.424Z,100582.25
2018-11-11T00:45:05.795Z,100583.12
2018-11-11T00:47:33.363Z,100582.70
2018-11-11T00:50:01.216Z,100573.13
2018-11-11T00:52:28.898Z,100578.34
2018-11-11T00:54:56.617Z,100578.83
2018-11-11T00:57:24.800Z,100586.59
2018-11-11T00:59:52.893Z,100594.44
2018-11-11T01:02:20.751Z,100594.42
2018-11-11T01:04:48.485Z,100589.16
2018-11-11T01:07:16.215Z,100593.51
2018-11-11T01:09:43.736Z,100596.98
2018-11-11T01:12:11.460Z,100597.00
2018-11-11T01:14:39.158Z,100589.59
2018-11-11T01:17:07.106Z,100598.30
2018-11-11T01:19:34.950Z,100590.91
2018-11-11T01:22:02.552Z,100588.73
2018-11-11T01:24:30.086Z,100585.67
2018-11-11T01:26:57.990Z,100585.66
2018-11-11T01:29:25.660Z,100581.23
2018-11-11T01:31:53.199Z,100581.23
2018-11-11T01:34:20.851Z,100580.81
2018-11-11T01:36:48.305Z,100575.56
2018-11-11T01:39:15.935Z,100578.56
2018-11-11T01:41:43.721Z,100580.28
2018-11-11T01:44:11.712Z,100580.30
2018-11-11T01:46:39.421Z,100575.13
2018-11-11T01:49:06.956Z,100575.50
2018-11-11T01:51:34.614Z,100573.27
2018-11-11T01:54:02.225Z,100571.50
2018-11-11T01:56:29.902Z,100572.01
2018-11-11T01:58:57.650Z,100578.91
2018-11-11T02:01:25.576Z,100581.58
2018-11-11T02:03:53.431Z,100583.27
2018-11-11T02:06:21.150Z,100585.53
2018-11-11T02:08:49.013Z,100588.12
2018-11-11T02:11:16.932Z,100586.91
2018-11-11T02:13:44.656Z,100582.47
2018-11-11T02:16:12.401Z,100590.83
2018-11-11T02:18:40.191Z,100585.23
2018-11-11T02:21:07.945Z,100583.56
2018-11-11T02:23:35.410Z,100583.56
2018-11-11T02:26:04.391Z,100584.41
2018-11-11T02:28:32.006Z,100590.96
2018-11-11T02:30:59.621Z,100583.56
2018-11-11T02:33:27.223Z,100583.55
2018-11-11T02:35:54.802Z,100582.75
2018-11-11T02:38:22.523Z,100583.25
2018-11-11T02:40:50.299Z,100584.94
2018-11-11T02:43:17.874Z,100590.14
2018-11-11T02:45:45.469Z,100588.80
2018-11-11T02:48:13.204Z,100590.09
2018-11-11T02:50:40.993Z,100581.00
2018-11-11T02:53:08.580Z,100585.79
2018-11-11T02:55:36.322Z,100576.67
2018-11-11T02:58:03.994Z,100579.70
2018-11-11T03:00:31.509Z,100577.97
2018-11-11T03:03:00.174Z,100580.53
2018-11-11T03:05:27.774Z,100577.09
2018-11-11T03:07:55.346Z,100577.09
2018-11-11T03:10:23.205Z,100583.19
2018-11-11T03:12:51.250Z,100577.97
2018-11-11T03:15:19.330Z,100583.19
2018-11-11T03:17:46.950Z,100582.27
2018-11-11T03:20:15.303Z,100582.31
2018-11-11T03:22:42.842Z,100584.51
2018-11-11T03:25:11.741Z,100585.80
2018-11-11T03:27:39.757Z,100604.51
2018-11-11T03:30:08.956Z,100607.56
2018-11-11T03:32:36.889Z,100611.47
2018-11-11T03:35:06.138Z,100611.48
2018-11-11T03:37:33.636Z,100600.61
2018-11-11T03:40:01.271Z,100589.73
2018-11-11T03:42:28.830Z,100590.17
2018-11-11T03:44:56.472Z,100597.19
2018-11-11T03:47:24.243Z,100596.30
2018-11-11T03:49:51.802Z,100587.55
2018-11-11T03:52:19.533Z,100595.88
2018-11-11T03:54:47.109Z,100598.00
2018-11-11T03:57:14.702Z,100591.02
2018-11-11T03:59:42.392Z,100592.78
2018-11-11T04:02:09.954Z,100596.30
2018-11-11T04:04:37.551Z,100599.72
2018-11-11T04:07:05.211Z,100609.73
2018-11-11T04:09:33.012Z,100611.84
2018-11-11T04:12:00.763Z,100622.30
2018-11-11T04:14:28.403Z,100616.64
2018-11-11T04:16:56.209Z,100617.95
2018-11-11T04:19:23.793Z,100617.95
2018-11-11T04:21:51.692Z,100618.38
2018-11-11T04:24:19.991Z,100614.90
2018-11-11T04:26:47.593Z,100627.95
2018-11-11T04:29:15.330Z,100624.48
2018-11-11T04:31:43.085Z,100625.36
2018-11-11T04:34:10.702Z,100625.89
2018-11-11T04:36:38.375Z,100630.58
2018-11-11T04:39:08.516Z,100636.61
2018-11-11T04:41:36.194Z,100636.22
2018-11-11T04:44:03.932Z,100620.56
2018-11-11T04:46:31.833Z,100620.61
2018-11-11T04:48:59.429Z,100615.02
2018-11-11T04:51:26.995Z,100621.50
2018-11-11T04:53:54.566Z,100616.32
2018-11-11T04:56:22.166Z,100621.97
2018-11-11T04:58:49.891Z,100623.22
2018-11-11T05:01:17.425Z,100628.46
2018-11-11T05:03:44.934Z,100624.09
2018-11-11T05:06:12.666Z,100618.00
2018-11-11T05:08:40.282Z,100614.52
2018-11-11T05:11:07.898Z,100615.88
2018-11-11T05:13:35.519Z,100619.30
2018-11-11T05:16:03.154Z,100629.77
2018-11-11T05:18:30.953Z,100627.09
2018-11-11T05:20:58.613Z,100634.97
2018-11-11T05:23:25.826Z,100632.81
2018-11-11T05:25:53.024Z,100633.66
2018-11-11T05:28:20.152Z,100643.20
2018-11-11T05:30:47.342Z,100637.52
2018-11-11T05:33:14.468Z,100643.55
2018-11-11T05:35:41.589Z,100644.00
2018-11-11T05:38:08.754Z,100654.52
2018-11-11T05:40:35.896Z,100654.94
2018-11-11T05:43:03.106Z,100646.61
2018-11-11T05:45:30.276Z,100646.63
2018-11-11T05:47:57.406Z,100641.88
2018-11-11T05:50:24.529Z,100645.73
2018-11-11T05:52:51.702Z,100652.28
2018-11-11T05:55:18.845Z,100650.48
2018-11-11T05:57:45.972Z,100650.09
2018-11-11T06:00:14.392Z,100653.95
2018-11-11T06:02:41.624Z,100650.90
2018-11-11T06:05:10.316Z,100645.69
2018-11-11T06:07:37.965Z,100649.66
2018-11-11T06:10:06.591Z,100650.48
2018-11-11T06:12:37.310Z,100637.41
2018-11-11T06:15:06.213Z,100635.65
2018-11-11T06:17:33.384Z,100647.86
2018-11-11T06:20:00.581Z,100642.62
2018-11-11T06:22:27.860Z,100642.20
2018-11-11T06:24:56.500Z,100634.78
2018-11-11T06:27:23.768Z,100642.58
2018-11-11T06:29:51.111Z,100649.11
2018-11-11T06:32:21.083Z,100655.64
2018-11-11T06:34:48.250Z,100651.25
2018-11-11T06:37:18.400Z,100654.63
2018-11-11T06:39:45.562Z,100651.98
2018-11-11T06:42:12.740Z,100648.49
2018-11-11T06:44:39.950Z,100645.31
2018-11-11T06:47:07.159Z,100649.76
2018-11-11T06:49:34.325Z,100653.73
2018-11-11T06:52:06.789Z,100655.05
2018-11-11T06:54:34.620Z,100654.67
2018-11-11T06:57:04.003Z,100648.16
2018-11-11T06:59:31.233Z,100648.52
2018-11-11T07:01:58.424Z,100643.73
2018-11-11T07:04:25.609Z,100637.20
2018-11-11T07:06:52.772Z,100640.32
2018-11-11T07:09:22.044Z,100634.22
2018-11-11T07:11:49.173Z,100629.86
2018-11-11T07:14:16.353Z,100628.13
2018-11-11T07:16:43.474Z,100637.28
2018-11-11T07:19:10.606Z,100629.37
2018-11-11T07:21:37.784Z,100632.81
2018-11-11T07:24:05.004Z,100624.58
2018-11-11T07:26:32.161Z,100642.41
2018-11-11T07:28:59.432Z,100634.59
2018-11-11T07:31:26.607Z,100621.52
2018-11-11T07:33:53.737Z,100617.16
2018-11-11T07:36:20.966Z,100604.45
2018-11-11T07:38:48.115Z,100608.42
2018-11-11T07:41:15.244Z,100619.27
2018-11-11T07:43:42.555Z,100624.55
2018-11-11T07:46:09.702Z,100614.03
2018-11-11T07:48:36.873Z,100612.70
2018-11-11T07:51:04.154Z,100619.70
2018-11-11T07:53:31.307Z,100627.08
2018-11-11T07:55:58.432Z,100626.56
2018-11-11T07:58:25.701Z,100636.13
2018-11-11T08:00:52.802Z,100638.31
2018-11-11T08:03:19.993Z,100634.75
2018-11-11T08:05:47.190Z,100646.79
2018-11-11T08:08:14.320Z,100642.41
2018-11-11T08:10:53.106Z,100643.81
2018-11-11T08:13:20.201Z,100656.78
2018-11-11T08:15:47.370Z,100641.48
2018-11-11T08:18:14.590Z,100625.87
2018-11-11T08:20:41.794Z,100617.49
2018-11-11T08:23:08.931Z,100620.34
2018-11-11T08:25:36.196Z,100625.47
2018-11-11T08:28:03.360Z,100637.33
2018-11-11T08:30:31.206Z,100644.21
2018-11-11T08:32:58.426Z,100645.08
2018-11-11T08:35:25.584Z,100647.59
2018-11-11T08:37:52.740Z,100644.19
2018-11-11T08:40:19.944Z,100651.43
2018-11-11T08:42:47.138Z,100665.59
2018-11-11T08:45:14.695Z,100660.16
2018-11-11T08:47:42.887Z,100650.97
2018-11-11T08:50:11.905Z,100662.64
2018-11-11T08:52:39.860Z,100668.82
2018-11-11T08:55:08.217Z,100670.81
2018-11-11T08:57:35.820Z,100666.44
2018-11-11T09:00:02.985Z,100665.89
2018-11-11T09:02:30.159Z,100676.78
2018-11-11T09:04:57.377Z,100678.34
2018-11-11T09:07:24.554Z,100684.27
2018-11-11T09:09:51.725Z,100683.20
2018-11-11T09:12:18.864Z,100681.27
2018-11-11T09:14:46.016Z,100686.59
2018-11-11T09:17:13.212Z,100690.14
2018-11-11T09:19:40.442Z,100688.00
2018-11-11T09:22:07.653Z,100681.98
2018-11-11T09:24:34.861Z,100675.52
2018-11-11T09:27:01.981Z,100669.64
2018-11-11T09:29:29.222Z,100659.25
2018-11-11T09:31:56.358Z,100679.70
2018-11-11T09:34:23.485Z,100712.20
2018-11-11T09:36:50.605Z,100708.85
2018-11-11T09:39:17.804Z,100715.25
2018-11-11T09:41:44.924Z,100716.17
2018-11-11T09:44:12.041Z,100715.13
2018-11-11T09:46:39.257Z,100721.67
2018-11-11T09:49:06.381Z,100714.27
2018-11-11T09:51:33.507Z,100721.21
2018-11-11T09:54:00.920Z,100714.86
2018-11-11T09:56:28.048Z,100721.06
2018-11-11T09:58:55.175Z,100712.99
2018-11-11T10:01:22.369Z,100716.76
2018-11-11T10:03:54.524Z,100711.05
2018-11-11T10:06:27.584Z,100705.26
2018-11-11T10:08:59.493Z,100712.53
2018-11-11T10:12:02.521Z,100723.26
2018-11-11T10:15:10.513Z,100733.93
2018-11-11T10:18:01.911Z,100738.09
2018-11-11T10:20:34.768Z,100738.69
2018-11-11T10:24:05.228Z,100733.30
2018-11-11T10:26:36.248Z,100732.86
2018-11-11T10:29:06.071Z,100730.74
2018-11-11T10:31:42.513Z,100729.56
2018-11-11T10:34:44.889Z,100727.37
2018-11-11T10:37:18.989Z,100735.04
2018-11-11T10:40:24.769Z,100751.70
2018-11-11T10:42:58.213Z,100762.48
2018-11-11T10:45:39.762Z,100751.41
2018-11-11T10:48:09.035Z,100759.59
2018-11-11T10:50:41.825Z,100758.92
2018-11-11T10:53:08.945Z,100762.36
2018-11-11T10:55:36.078Z,100763.94
2018-11-11T10:58:03.257Z,100760.80
2018-11-11T11:00:36.284Z,100761.47
2018-11-11T11:03:08.041Z,100770.45
2018-11-11T11:05:35.190Z,100772.06
2018-11-11T11:08:02.297Z,100786.94
2018-11-11T11:10:29.524Z,100778.56
2018-11-11T11:12:56.689Z,100776.70
2018-11-11T11:15:23.826Z,100777.58
2018-11-11T11:17:51.012Z,100783.67
2018-11-11T11:20:19.228Z,100789.12
2018-11-11T11:22:46.399Z,100792.30
2018-11-11T11:25:13.626Z,100802.20
2018-11-11T11:27:41.198Z,100799.06
2018-11-11T11:30:10.107Z,100796.53
2018-11-11T11:32:37.301Z,100800.13
2018-11-11T11:35:05.261Z,100792.84
2018-11-11T11:37:32.385Z,100791.47
2018-11-11T11:39:59.544Z,100790.28
2018-11-11T11:42:26.664Z,100785.03
2018-11-11T11:44:53.801Z,100794.64
2018-11-11T11:47:21.030Z,100790.70
2018-11-11T11:49:48.247Z,100786.34
2018-11-11T11:52:15.414Z,100779.80
2018-11-11T11:54:42.601Z,100785.50
2018-11-11T11:57:09.756Z,100790.16
2018-11-11T11:59:36.885Z,100783.59
2018-11-11T12:02:04.602Z,100793.75
2018-11-11T12:04:32.755Z,100787.31
2018-11-11T12:06:59.897Z,100787.48
2018-11-11T12:09:27.073Z,100783.00
2018-11-11T12:11:54.242Z,100783.14
2018-11-11T12:14:21.401Z,100773.08
2018-11-11T12:16:48.697Z,100763.30
2018-11-11T12:19:15.832Z,100749.58
2018-11-11T12:21:42.985Z,100765.73
2018-11-11T12:24:10.193Z,100746.28
2018-11-11T12:26:37.333Z,100758.74
2018-11-11T12:29:04.601Z,100755.20
2018-11-11T12:31:31.802Z,100753.11
2018-11-11T12:33:58.950Z,100760.67
2018-11-11T12:36:26.089Z,100772.44
2018-11-11T12:38:53.334Z,100757.05
2018-11-11T12:41:20.463Z,100758.14
2018-11-11T12:43:47.600Z,100752.29
2018-11-11T12:46:14.812Z,100750.70
2018-11-11T12:48:41.956Z,100749.34
2018-11-11T12:51:09.097Z,100748.86
2018-11-11T12:53:36.314Z,100742.78
2018-11-11T12:56:03.456Z,100735.31
2018-11-11T12:58:30.601Z,100729.33
2018-11-11T13:00:57.843Z,100737.70
2018-11-11T13:03:25.038Z,100725.98
2018-11-11T13:05:52.248Z,100721.69
2018-11-11T13:08:19.436Z,100718.28
2018-11-11T13:10:46.597Z,100720.11
2018-11-11T13:13:13.740Z,100732.63
2018-11-11T13:15:40.998Z,100733.15
2018-11-11T13:18:08.092Z,100737.12
2018-11-11T13:20:35.268Z,100736.37
2018-11-11T13:23:02.616Z,100735.40
2018-11-11T13:25:29.657Z,100746.62
2018-11-11T13:27:56.801Z,100746.43
2018-11-11T13:30:23.988Z,100739.44
2018-11-11T13:32:52.156Z,100753.49
2018-11-11T13:35:19.304Z,100760.05
2018-11-11T13:37:46.591Z,100776.45
2018-11-11T13:40:15.261Z,100779.91
2018-11-11T13:42:42.501Z,100763.70
2018-11-11T13:45:12.501Z,100761.91
2018-11-11T13:47:39.788Z,100764.19
2018-11-11T13:50:09.651Z,100765.89
2018-11-11T13:52:36.840Z,100790.12
2018-11-11T13:55:05.289Z,100787.42
2018-11-11T13:57:32.453Z,100785.81
2018-11-11T13:59:59.722Z,100783.66
2018-11-11T14:02:26.845Z,100778.27
2018-11-11T14:04:54.081Z,100788.16
2018-11-11T14:07:21.268Z,100792.97
2018-11-11T14:09:48.574Z,100795.51
2018-11-11T14:12:15.730Z,100795.38
2018-11-11T14:14:44.018Z,100802.41
2018-11-11T14:17:11.285Z,100811.69
2018-11-11T14:19:39.556Z,100805.88
2018-11-11T14:22:06.743Z,100805.94
2018-11-11T14:24:33.973Z,100811.78
2018-11-11T14:27:01.095Z,100807.00
2018-11-11T14:29:28.389Z,100811.75
2018-11-11T14:31:55.782Z,100811.03
2018-11-11T14:34:23.055Z,100817.20
2018-11-11T14:36:50.268Z,100823.44
2018-11-11T14:39:17.433Z,100823.08
2018-11-11T14:41:44.833Z,100830.14
2018-11-11T14:44:12.156Z,100828.46
2018-11-11T14:46:40.218Z,100840.47
2018-11-11T14:49:07.983Z,100843.19
2018-11-11T14:51:35.411Z,100859.81
2018-11-11T14:54:02.669Z,100860.31
2018-11-11T14:56:30.010Z,100856.48
2018-11-11T14:58:57.381Z,100867.00
2018-11-11T15:01:24.431Z,100859.03
2018-11-11T15:03:51.656Z,100864.37
2018-11-11T15:06:18.861Z,100857.01
2018-11-11T15:08:46.001Z,100850.91
2018-11-11T15:11:13.159Z,100846.76
2018-11-11T15:13:40.352Z,100844.66
2018-11-11T15:16:07.563Z,100832.72
2018-11-11T15:18:35.798Z,100834.97
2018-11-11T15:21:03.104Z,100838.17
2018-11-11T15:23:30.275Z,100838.67
2018-11-11T15:25:57.448Z,100837.03
2018-11-11T15:28:24.669Z,100831.58
2018-11-11T15:30:51.999Z,100816.78
2018-11-11T15:33:19.308Z,100818.50
2018-11-11T15:35:46.559Z,100828.25
2018-11-11T15:38:13.742Z,100824.30
2018-11-11T15:40:40.897Z,100837.09
2018-11-11T15:43:10.230Z,100844.45
2018-11-11T15:45:37.428Z,100847.08
2018-11-11T15:48:05.098Z,100852.81
2018-11-11T15:50:33.162Z,100855.91
2018-11-11T15:53:02.456Z,100866.49
2018-11-11T15:55:31.020Z,100866.61
2018-11-11T15:57:58.383Z,100874.52
2018-11-11T16:00:26.929Z,100875.55
2018-11-11T16:02:54.137Z,100883.97
2018-11-11T16:05:21.518Z,100883.95
2018-11-11T16:07:49.716Z,100894.58
2018-11-11T16:10:18.463Z,100889.37
2018-11-11T16:12:46.480Z,100891.94
2018-11-11T16:15:17.548Z,100894.60
2018-11-11T16:17:45.972Z,100895.01
2018-11-11T16:20:14.724Z,100890.91
2018-11-11T16:22:43.295Z,100893.14
2018-11-11T16:25:11.032Z,100888.36
2018-11-11T16:27:39.215Z,100883.39
2018-11-11T16:30:08.942Z,100877.84
2018-11-11T16:32:36.262Z,100877.13
2018-11-11T16:35:03.821Z,100878.02
2018-11-11T16:37:31.086Z,100881.05
2018-11-11T16:39:58.406Z,100880.63
2018-11-11T16:42:25.583Z,100879.78
2018-11-11T16:44:53.253Z,100886.82
2018-11-11T16:47:20.537Z,100886.45
2018-11-11T16:49:47.709Z,100883.39
2018-11-11T16:52:14.956Z,100889.55
2018-11-11T16:54:42.118Z,100883.05
2018-11-11T16:57:09.278Z,100885.29
2018-11-11T16:59:36.473Z,100879.19
2018-11-11T17:02:03.861Z,100874.94
2018-11-11T17:04:31.143Z,100878.52
2018-11-11T17:06:59.374Z,100879.47
2018-11-11T17:09:26.594Z,100874.78
2018-11-11T17:11:53.759Z,100871.36
2018-11-11T17:14:21.033Z,100887.09
2018-11-11T17:16:48.176Z,100889.33
2018-11-11T17:19:15.334Z,100889.31
2018-11-11T17:21:42.644Z,100884.98
2018-11-11T17:24:09.828Z,100898.96
2018-11-11T17:26:36.969Z,100896.75
2018-11-11T17:29:04.139Z,100897.20
2018-11-11T17:31:31.380Z,100892.73
2018-11-11T17:33:58.669Z,100892.71
2018-11-11T17:36:25.858Z,100905.41
2018-11-11T17:38:53.448Z,100899.66
2018-11-11T17:41:20.686Z,100900.41
2018-11-11T17:43:47.816Z,100902.19
2018-11-11T17:46:15.087Z,100907.45
2018-11-11T17:48:42.349Z,100906.53
2018-11-11T17:51:09.494Z,100909.14
2018-11-11T17:53:36.788Z,100918.67
2018-11-11T17:56:04.223Z,100922.16
2018-11-11T17:58:31.356Z,100932.61
2018-11-11T18:00:59.055Z,100938.68
2018-11-11T18:03:26.427Z,100945.67
2018-11-11T18:05:53.669Z,100943.48
2018-11-11T18:08:20.993Z,100945.27
2018-11-11T18:10:48.232Z,100947.05
2018-11-11T18:13:15.395Z,100948.20
2018-11-11T18:15:42.596Z,100951.55
2018-11-11T18:18:09.740Z,100962.89
2018-11-11T18:20:36.905Z,100964.59
2018-11-11T18:23:04.358Z,100965.94
2018-11-11T18:25:31.510Z,100974.28
2018-11-11T18:27:58.936Z,100968.11
2018-11-11T18:30:30.111Z,100962.89
2018-11-11T18:32:57.250Z,100961.54
2018-11-11T18:35:24.483Z,100957.33
2018-11-11T18:37:51.823Z,100961.29
2018-11-11T18:40:21.234Z,100962.58
2018-11-11T18:42:48.382Z,100956.94
2018-11-11T18:45:18.828Z,100961.41
2018-11-11T18:47:46.769Z,100970.28
2018-11-11T18:50:16.393Z,100981.34
2018-11-11T18:52:43.813Z,100990.62
2018-11-11T18:55:11.492Z,100985.75
2018-11-11T18:57:38.960Z,100981.70
2018-11-11T19:00:12.285Z,100981.75
2018-11-11T19:02:39.517Z,100986.51
2018-11-11T19:05:08.042Z,100995.70
2018-11-11T19:07:35.248Z,100995.38
2018-11-11T19:10:02.527Z,100979.75
2018-11-11T19:12:29.636Z,100987.16
2018-11-11T19:14:56.845Z,100976.22
2018-11-11T19:17:23.985Z,100968.69
2018-11-11T19:19:51.136Z,100967.82
2018-11-11T19:22:18.324Z,100969.10
2018-11-11T19:24:45.493Z,100972.58
2018-11-11T19:27:12.645Z,100965.16
2018-11-11T19:29:39.864Z,100967.80
2018-11-11T19:32:07.072Z,100970.02
2018-11-11T19:34:34.362Z,100967.06
2018-11-11T19:37:01.625Z,100971.08
2018-11-11T19:39:28.809Z,100971.98
2018-11-11T19:41:56.099Z,100964.83
2018-11-11T19:44:23.688Z,100967.05
2018-11-11T19:46:51.050Z,100984.89
2018-11-11T19:49:18.256Z,100984.88
2018-11-11T19:51:45.564Z,100984.75
2018-11-11T19:54:12.709Z,100975.19
2018-11-11T19:56:40.468Z,100963.25
2018-11-11T19:59:07.941Z,100963.25
2018-11-11T20:01:36.514Z,100966.55
2018-11-11T20:04:04.066Z,100962.17
2018-11-11T20:06:31.329Z,100968.30
2018-11-11T20:08:58.473Z,100975.38
2018-11-11T20:11:25.751Z,100978.80
2018-11-11T20:13:53.257Z,100990.16
2018-11-11T20:16:20.552Z,100991.89
2018-11-11T20:18:47.745Z,100995.80
2018-11-11T20:21:14.956Z,100995.31
2018-11-11T20:23:42.184Z,100993.98
2018-11-11T20:26:09.350Z,100996.98
2018-11-11T20:28:36.561Z,100996.50
2018-11-11T20:31:03.881Z,101001.36
2018-11-11T20:33:31.388Z,101006.63
2018-11-11T20:35:59.322Z,101013.11
2018-11-11T20:38:26.545Z,101020.98
2018-11-11T20:40:53.737Z,101014.88
2018-11-11T20:43:22.077Z,101013.95
2018-11-11T20:45:49.165Z,101017.48
2018-11-11T20:48:16.305Z,101026.97
2018-11-11T20:50:43.513Z,101027.85
2018-11-11T20:53:10.674Z,101025.69
2018-11-11T20:55:37.929Z,101041.33
2018-11-11T20:58:06.362Z,101043.05
2018-11-11T21:00:35.999Z,101050.58
2018-11-11T21:03:03.270Z,101047.01
2018-11-11T21:05:30.604Z,101048.33
2018-11-11T21:07:57.761Z,101049.63
2018-11-11T21:10:26.105Z,101052.64
2018-11-11T21:12:53.444Z,101052.12
2018-11-11T21:15:21.832Z,101053.88
2018-11-11T21:17:49.290Z,101054.41
2018-11-11T21:20:18.136Z,101042.50
2018-11-11T21:22:45.298Z,101045.19
2018-11-11T21:25:12.686Z,101048.61
2018-11-11T21:27:40.677Z,101053.06
2018-11-11T21:30:10.380Z,101055.57
2018-11-11T21:32:37.648Z,101058.20
2018-11-11T21:35:04.977Z,101056.80
2018-11-11T21:37:32.219Z,101058.13
2018-11-11T21:39:59.457Z,101047.72
2018-11-11T21:42:26.728Z,101053.73
2018-11-11T21:44:54.015Z,101035.31
2018-11-11T21:47:21.077Z,101034.48
2018-11-11T21:49:48.469Z,101028.25
2018-11-11T21:52:15.944Z,101025.23
2018-11-11T21:54:43.145Z,101038.25
2018-11-11T21:57:10.404Z,101038.36
2018-11-11T21:59:37.554Z,101025.19
2018-11-11T22:02:04.767Z,101026.38
2018-11-11T22:04:32.014Z,101023.22
2018-11-11T22:06:59.177Z,101025.96
2018-11-11T22:09:26.341Z,101022.02
2018-11-11T22:11:53.512Z,101023.75
2018-11-11T22:14:20.655Z,101018.08
2018-11-11T22:16:47.792Z,101044.80
2018-11-11T22:19:15.001Z,101056.23
2018-11-11T22:21:42.116Z,101047.88
2018-11-11T22:24:09.261Z,101060.13
2018-11-11T22:26:36.430Z,101075.58
2018-11-11T22:29:03.616Z,101062.84
2018-11-11T22:31:31.231Z,101065.88
2018-11-11T22:33:58.413Z,101089.05
2018-11-11T22:36:25.537Z,101101.75
2018-11-11T22:38:52.669Z,101103.48
2018-11-11T22:41:19.841Z,101089.05
2018-11-11T22:43:46.942Z,101104.41
2018-11-11T22:46:14.081Z,101099.17
2018-11-11T22:48:41.276Z,101099.16
2018-11-11T22:51:08.413Z,101103.68
2018-11-11T22:53:35.668Z,101109.73
2018-11-11T22:56:02.874Z,101116.33
2018-11-11T22:58:30.009Z,101120.74
2018-11-11T23:01:03.438Z,101135.28
2018-11-11T23:03:30.577Z,101131.34
2018-11-11T23:05:58.792Z,101135.31
2018-11-11T23:08:25.994Z,101142.89
2018-11-11T23:10:53.113Z,101133.22
2018-11-11T23:13:20.252Z,101130.28
2018-11-11T23:15:47.410Z,101124.58
2018-11-11T23:18:14.545Z,101123.25
2018-11-11T23:20:41.686Z,101130.62
2018-11-11T23:23:08.873Z,101130.58
2018-11-11T23:25:35.992Z,101128.31
2018-11-11T23:28:03.122Z,101135.02
2018-11-11T23:30:30.272Z,101143.77
2018-11-11T23:32:57.389Z,101140.72
2018-11-11T23:35:24.509Z,101141.58
2018-11-11T23:37:51.707Z,101133.71
2018-11-11T23:40:19.214Z,101136.86
2018-11-11T23:42:46.881Z,101127.68
2018-11-11T23:45:14.124Z,101123.75
2018-11-11T23:47:41.273Z,101117.61
2018-11-11T23:50:12.309Z,101118.06
2018-11-11T23:52:39.499Z,101133.03
2018-11-11T23:55:08.226Z,101136.03
2018-11-11T23:57:35.461Z,101131.70
